Time;durP1;ratioP1;P1;durP2;ratioP2;P2;SDS_P1;SDS_P2;PMS_P1;PMS_P2;Temp;Humidity;BMP_temperature;BMP_pressure;BME280_temperature;BME280_humidity;BME280_pressure;Samples;Min_cycle;Max_cycle;Signal;HPM_P1;HPM_P2
2023/06/21 00:00:34;;;;;;;14.05;7.38;;;;;;;;;;5057525;28;20488;-84
2023/06/21 00:03:04;;;;;;;12.25;8.10;;;;;;;;;;5059230;28;20459;-84
2023/06/21 00:05:31;;;;;;;15.70;7.45;;;;;;;;;;5059013;28;20049;-83
2023/06/21 00:07:58;;;;;;;12.65;7.30;;;;;;;;;;5063363;28;20442;-85
2023/06/21 00:10:28;;;;;;;10.85;7.18;;;;;;;;;;5076787;28;20063;-83
2023/06/21 00:12:55;;;;;;;11.18;7.53;;;;;;;;;;5079080;28;20056;-83
2023/06/21 00:15:23;;;;;;;11.75;7.13;;;;;;;;;;5071036;28;20036;-83
2023/06/21 00:17:50;;;;;;;12.70;7.13;;;;;;;;;;5059832;28;20045;-82
2023/06/21 00:20:18;;;;;;;12.73;7.40;;;;;;;;;;5060111;28;20077;-83
2023/06/21 00:22:45;;;;;;;15.32;8.10;;;;;;;;;;5059644;28;20108;-81
2023/06/21 00:25:14;;;;;;;11.00;7.57;;;;;;;;;;5057292;28;20403;-82
2023/06/21 00:27:42;;;;;;;12.93;7.65;;;;;;;;;;5056839;28;20053;-82
2023/06/21 00:30:09;;;;;;;14.27;7.88;;;;;;;;;;5055995;28;20508;-83
2023/06/21 00:32:39;;;;;;;11.82;7.43;;;;;;;;;;5056088;28;20075;-82
2023/06/21 00:35:07;;;;;;;11.13;7.40;;;;;;;;;;5059375;28;20044;-82
2023/06/21 00:37:33;;;;;;;11.55;7.20;;;;;;;;;;5078962;28;20028;-83
2023/06/21 00:40:00;;;;;;;12.30;7.30;;;;;;;;;;5079558;28;20037;-83
2023/06/21 00:42:27;;;;;;;12.10;7.40;;;;;;;;;;5078576;28;20296;-82
2023/06/21 00:44:54;;;;;;;10.15;7.53;;;;;;;;;;5071731;28;20053;-83
2023/06/21 00:47:22;;;;;;;12.25;7.93;;;;;;;;;;5068041;28;20049;-82
2023/06/21 00:49:50;;;;;;;12.32;6.93;;;;;;;;;;5061157;28;20083;-83
2023/06/21 00:52:18;;;;;;;10.77;7.25;;;;;;;;;;5060229;28;20056;-83
2023/06/21 00:54:45;;;;;;;13.00;7.80;;;;;;;;;;5068003;28;20045;-82
2023/06/21 00:57:12;;;;;;;14.52;7.93;;;;;;;;;;5080170;28;20066;-83
2023/06/21 00:59:39;;;;;;;11.65;7.80;;;;;;;;;;5065533;28;20048;-83
2023/06/21 01:02:11;;;;;;;12.73;7.65;;;;;;;;;;5060162;28;20140;-83
2023/06/21 01:04:38;;;;;;;12.25;8.10;;;;;;;;;;5063047;28;20082;-82
2023/06/21 01:07:29;;;;;;;11.55;7.50;;;;;;;;;;5073543;28;20110;-82
2023/06/21 01:10:14;;;;;;;10.43;7.07;;;;;;;;;;5040125;28;20057;-83
2023/06/21 01:12:54;;;;;;;14.02;6.90;;;;;;;;;;5058455;28;20068;-82
2023/06/21 01:15:25;;;;;;;10.95;7.18;;;;;;;;;;5060155;28;20053;-83
2023/06/21 01:17:54;;;;;;;16.27;7.47;;;;;;;;;;5059720;28;20491;-83
2023/06/21 01:20:28;;;;;;;13.15;7.43;;;;;;;;;;5059066;28;20155;-83
2023/06/21 01:23:14;;;;;;;11.70;7.22;;;;;;;;;;5058765;28;20128;-83
2023/06/21 01:25:53;;;;;;;12.90;6.93;;;;;;;;;;5058246;28;20049;-82
2023/06/21 01:28:42;;;;;;;11.35;6.30;;;;;;;;;;5057969;28;20049;-83
2023/06/21 01:31:15;;;;;;;8.70;6.80;;;;;;;;;;5058501;28;20040;-82
2023/06/21 01:33:42;;;;;;;10.77;6.57;;;;;;;;;;5058020;28;20060;-83
2023/06/21 01:36:10;;;;;;;9.88;6.07;;;;;;;;;;5059111;28;20044;-84
2023/06/21 01:38:37;;;;;;;13.52;7.85;;;;;;;;;;5057825;28;20517;-82
2023/06/21 01:41:04;;;;;;;12.25;6.93;;;;;;;;;;5057527;28;20048;-83
2023/06/21 01:43:32;;;;;;;12.68;6.85;;;;;;;;;;5058620;28;20086;-82
2023/06/21 01:46:01;;;;;;;10.13;7.22;;;;;;;;;;5057838;28;20441;-83
2023/06/21 01:48:30;;;;;;;11.18;6.75;;;;;;;;;;5057545;28;20045;-82
2023/06/21 01:50:58;;;;;;;12.00;6.55;;;;;;;;;;5062589;28;20127;-83
2023/06/21 01:53:25;;;;;;;11.35;6.35;;;;;;;;;;5077554;28;20139;-82
2023/06/21 01:55:56;;;;;;;11.60;7.35;;;;;;;;;;5064767;28;20052;-82
2023/06/21 01:58:23;;;;;;;11.70;7.00;;;;;;;;;;5057779;28;20052;-82
2023/06/21 02:00:50;;;;;;;9.82;6.40;;;;;;;;;;5057765;28;20102;-82
2023/06/21 02:03:18;;;;;;;10.45;6.38;;;;;;;;;;5050891;28;20042;-82
2023/06/21 02:05:47;;;;;;;11.07;6.35;;;;;;;;;;5036865;28;20053;-81
2023/06/21 02:08:16;;;;;;;14.13;6.95;;;;;;;;;;5062974;28;20060;-82
2023/06/21 02:10:44;;;;;;;9.60;6.77;;;;;;;;;;5044861;28;20049;-83
2023/06/21 02:13:12;;;;;;;13.30;7.55;;;;;;;;;;5067482;28;20144;-82
2023/06/21 02:15:40;;;;;;;11.50;6.53;;;;;;;;;;5057550;28;20127;-82
2023/06/21 02:18:07;;;;;;;10.88;7.00;;;;;;;;;;5071862;28;20492;-82
2023/06/21 02:20:34;;;;;;;11.13;7.25;;;;;;;;;;5059726;28;20091;-81
2023/06/21 02:23:02;;;;;;;12.30;7.32;;;;;;;;;;5056894;28;20088;-81
2023/06/21 02:25:29;;;;;;;10.43;7.00;;;;;;;;;;5059800;28;20102;-81
2023/06/21 02:27:56;;;;;;;10.98;6.35;;;;;;;;;;5077962;28;20048;-82
2023/06/21 02:30:24;;;;;;;9.23;6.28;;;;;;;;;;5077928;28;20106;-81
2023/06/21 02:32:51;;;;;;;10.40;6.53;;;;;;;;;;5074435;28;20048;-81
2023/06/21 02:35:18;;;;;;;10.80;6.70;;;;;;;;;;5074506;28;20505;-81
2023/06/21 02:37:44;;;;;;;12.27;6.90;;;;;;;;;;5075110;28;20120;-81
2023/06/21 02:40:13;;;;;;;9.35;6.88;;;;;;;;;;5074857;28;20067;-82
2023/06/21 02:42:41;;;;;;;12.07;7.00;;;;;;;;;;5074718;28;20283;-81
2023/06/21 02:45:09;;;;;;;11.75;7.22;;;;;;;;;;5074309;28;20055;-81
2023/06/21 02:47:35;;;;;;;11.50;6.63;;;;;;;;;;5074781;28;20086;-82
2023/06/21 02:50:03;;;;;;;14.68;7.05;;;;;;;;;;5074397;28;20131;-81
2023/06/21 02:52:30;;;;;;;12.73;7.22;;;;;;;;;;5074408;28;20098;-81
2023/06/21 02:54:57;;;;;;;10.98;6.95;;;;;;;;;;5065184;28;20049;-81
2023/06/21 02:57:25;;;;;;;9.40;6.20;;;;;;;;;;5054716;28;20167;-81
2023/06/21 02:59:51;;;;;;;10.15;6.72;;;;;;;;;;5054967;28;20376;-82
2023/06/21 03:02:18;;;;;;;9.57;6.85;;;;;;;;;;5060250;28;20044;-82
2023/06/21 03:04:45;;;;;;;11.27;7.47;;;;;;;;;;5075989;28;20096;-83
2023/06/21 03:07:12;;;;;;;12.90;7.80;;;;;;;;;;5072470;28;20068;-83
2023/06/21 03:09:40;;;;;;;12.45;6.85;;;;;;;;;;5076777;28;20053;-82
2023/06/21 03:12:08;;;;;;;14.05;7.95;;;;;;;;;;5071709;28;20395;-80
2023/06/21 03:14:38;;;;;;;11.55;6.95;;;;;;;;;;5056441;28;20102;-80
2023/06/21 03:17:05;;;;;;;12.55;7.07;;;;;;;;;;5056098;28;20056;-82
2023/06/21 03:19:32;;;;;;;11.40;7.43;;;;;;;;;;5055317;28;20045;-81
2023/06/21 03:21:59;;;;;;;13.70;8.02;;;;;;;;;;5054603;28;20048;-81
2023/06/21 03:24:26;;;;;;;10.93;7.05;;;;;;;;;;5054127;28;20056;-81
2023/06/21 03:26:53;;;;;;;12.70;7.50;;;;;;;;;;5053415;28;20484;-81
2023/06/21 03:29:20;;;;;;;14.82;8.23;;;;;;;;;;5053294;28;20530;-81
2023/06/21 03:31:48;;;;;;;12.23;7.63;;;;;;;;;;5054123;28;20077;-82
2023/06/21 03:34:14;;;;;;;13.25;7.30;;;;;;;;;;5055780;28;20080;-81
2023/06/21 03:36:41;;;;;;;12.80;6.85;;;;;;;;;;5066982;28;20053;-82
2023/06/21 03:39:08;;;;;;;11.38;7.00;;;;;;;;;;5066756;28;20068;-81
2023/06/21 03:41:34;;;;;;;16.50;8.10;;;;;;;;;;5060452;28;20127;-81
2023/06/21 03:44:01;;;;;;;14.35;7.30;;;;;;;;;;5058986;28;20085;-81
2023/06/21 03:46:28;;;;;;;12.82;7.38;;;;;;;;;;5058770;28;20112;-80
2023/06/21 03:48:56;;;;;;;12.10;7.45;;;;;;;;;;5057885;28;20095;-83
2023/06/21 03:51:23;;;;;;;11.13;7.28;;;;;;;;;;5058768;28;20071;-82
2023/06/21 03:53:50;;;;;;;14.10;8.25;;;;;;;;;;5058704;28;20053;-82
2023/06/21 03:56:17;;;;;;;12.82;7.65;;;;;;;;;;5058978;28;20041;-81
2023/06/21 03:58:44;;;;;;;16.60;8.20;;;;;;;;;;5058382;28;20510;-83
2023/06/21 04:01:11;;;;;;;12.88;7.47;;;;;;;;;;5059311;28;20191;-80
2023/06/21 04:03:37;;;;;;;13.18;8.07;;;;;;;;;;5058358;28;20128;-80
2023/06/21 04:06:06;;;;;;;13.30;8.30;;;;;;;;;;5058776;28;20407;-81
2023/06/21 04:08:32;;;;;;;13.40;8.77;;;;;;;;;;5068261;28;20049;-82
2023/06/21 04:11:00;;;;;;;15.23;9.77;;;;;;;;;;5065031;28;20102;-80
2023/06/21 04:13:26;;;;;;;17.17;9.52;;;;;;;;;;5058982;28;20186;-81
2023/06/21 04:15:53;;;;;;;12.70;9.00;;;;;;;;;;5058756;28;20090;-82
2023/06/21 04:18:20;;;;;;;16.25;10.13;;;;;;;;;;5060616;28;20045;-80
2023/06/21 04:20:49;;;;;;;18.70;10.52;;;;;;;;;;5068523;28;20081;-81
2023/06/21 04:23:17;;;;;;;13.75;9.52;;;;;;;;;;5060190;28;20045;-82
2023/06/21 04:25:44;;;;;;;16.90;12.50;;;;;;;;;;5059961;28;20048;-82
2023/06/21 04:28:10;;;;;;;18.33;12.20;;;;;;;;;;5060022;28;20041;-81
2023/06/21 04:30:37;;;;;;;19.13;11.15;;;;;;;;;;5058693;28;20123;-82
2023/06/21 04:33:04;;;;;;;17.42;10.45;;;;;;;;;;5058273;28;20049;-82
2023/06/21 04:35:32;;;;;;;13.40;9.55;;;;;;;;;;5072258;28;20049;-83
2023/06/21 04:38:00;;;;;;;15.23;9.07;;;;;;;;;;5062656;28;20052;-83
2023/06/21 04:40:29;;;;;;;13.70;9.82;;;;;;;;;;5061530;28;20053;-83
2023/06/21 04:42:58;;;;;;;16.13;10.57;;;;;;;;;;5069364;28;20049;-83
2023/06/21 04:45:26;;;;;;;14.35;10.20;;;;;;;;;;5079188;28;20087;-83
2023/06/21 04:47:57;;;;;;;17.00;9.60;;;;;;;;;;5084123;28;20132;-84
2023/06/21 04:50:25;;;;;;;15.75;9.40;;;;;;;;;;5066399;28;20397;-82
2023/06/21 04:52:57;;;;;;;15.70;9.38;;;;;;;;;;5057251;28;20110;-82
2023/06/21 04:55:25;;;;;;;14.13;8.63;;;;;;;;;;5058141;28;20041;-82
2023/06/21 04:57:53;;;;;;;13.10;9.00;;;;;;;;;;5055968;28;20075;-82
2023/06/21 05:00:20;;;;;;;14.07;8.45;;;;;;;;;;5056385;28;20064;-83
2023/06/21 05:02:47;;;;;;;12.95;8.55;;;;;;;;;;5058448;28;20055;-84
2023/06/21 05:05:14;;;;;;;13.55;8.93;;;;;;;;;;5057791;28;20053;-83
2023/06/21 05:07:41;;;;;;;14.35;8.77;;;;;;;;;;5057909;28;20074;-83
2023/06/21 05:10:09;;;;;;;16.63;8.60;;;;;;;;;;5063553;28;20060;-82
2023/06/21 05:12:36;;;;;;;12.52;8.48;;;;;;;;;;5081934;22;20045;-62
2023/06/21 05:15:06;;;;;;;13.23;8.70;;;;;;;;;;5029590;28;20060;-62
2023/06/21 05:17:33;;;;;;;15.32;9.43;;;;;;;;;;5029518;28;20093;-62
2023/06/21 05:20:00;;;;;;;14.93;8.98;;;;;;;;;;5030777;28;20041;-62
2023/06/21 05:22:27;;;;;;;13.73;8.85;;;;;;;;;;5037493;28;20044;-62
2023/06/21 05:24:54;;;;;;;16.05;8.48;;;;;;;;;;5040157;28;20041;-62
2023/06/21 05:27:21;;;;;;;14.65;8.38;;;;;;;;;;5040838;28;20053;-63
2023/06/21 05:29:49;;;;;;;16.35;8.85;;;;;;;;;;5041131;28;20481;-62
2023/06/21 05:32:17;;;;;;;14.00;8.95;;;;;;;;;;5039560;28;20178;-62
2023/06/21 05:34:44;;;;;;;13.02;7.95;;;;;;;;;;5038793;28;20064;-62
2023/06/21 05:37:11;;;;;;;14.75;8.45;;;;;;;;;;5039889;28;20064;-62
2023/06/21 05:39:39;;;;;;;13.73;8.23;;;;;;;;;;5040114;28;20063;-63
2023/06/21 05:42:06;;;;;;;16.02;8.32;;;;;;;;;;5040660;28;20056;-63
2023/06/21 05:44:33;;;;;;;13.13;8.52;;;;;;;;;;5038865;28;20046;-63
2023/06/21 05:47:00;;;;;;;11.57;8.30;;;;;;;;;;5041616;28;20037;-62
2023/06/21 05:49:29;;;;;;;13.45;8.90;;;;;;;;;;5038633;28;20079;-63
2023/06/21 05:51:55;;;;;;;13.13;7.75;;;;;;;;;;5035796;28;20069;-62
2023/06/21 05:54:22;;;;;;;12.65;8.23;;;;;;;;;;5039841;28;20430;-62
2023/06/21 05:56:52;;;;;;;12.82;7.97;;;;;;;;;;5032947;28;20394;-62
2023/06/21 05:59:18;;;;;;;10.33;7.60;;;;;;;;;;5037293;28;20060;-63
2023/06/21 06:01:45;;;;;;;13.90;8.98;;;;;;;;;;5035628;28;20369;-63
2023/06/21 06:04:12;;;;;;;13.73;8.27;;;;;;;;;;5030351;28;20045;-63
2023/06/21 06:06:42;;;;;;;12.38;7.97;;;;;;;;;;5034537;28;20057;-63
2023/06/21 06:09:09;;;;;;;12.73;8.23;;;;;;;;;;5034557;28;20049;-63
2023/06/21 06:11:37;;;;;;;11.00;7.43;;;;;;;;;;5034124;28;20056;-63
2023/06/21 06:14:04;;;;;;;15.40;8.70;;;;;;;;;;5034274;28;20506;-62
2023/06/21 06:16:31;;;;;;;18.30;8.38;;;;;;;;;;5040044;28;20128;-62
2023/06/21 06:18:58;;;;;;;14.02;8.40;;;;;;;;;;5041029;28;20049;-64
2023/06/21 06:21:25;;;;;;;13.18;7.90;;;;;;;;;;5047738;28;20048;-67
2023/06/21 06:23:54;;;;;;;13.45;7.93;;;;;;;;;;5039664;28;20509;-63
2023/06/21 06:26:23;;;;;;;14.43;8.43;;;;;;;;;;5031393;28;20053;-63
2023/06/21 06:28:50;;;;;;;13.10;8.57;;;;;;;;;;5034690;28;20573;-62
2023/06/21 06:31:20;;;;;;;14.68;8.93;;;;;;;;;;5034423;28;20046;-63
2023/06/21 06:33:47;;;;;;;13.07;8.23;;;;;;;;;;5034574;28;20054;-62
2023/06/21 06:36:14;;;;;;;13.32;8.18;;;;;;;;;;5034083;28;20052;-63
2023/06/21 06:38:41;;;;;;;15.52;7.93;;;;;;;;;;5033892;28;20050;-62
2023/06/21 06:41:09;;;;;;;11.57;7.68;;;;;;;;;;5033502;28;20045;-63
2023/06/21 06:43:36;;;;;;;12.65;8.15;;;;;;;;;;5034219;28;20512;-62
2023/06/21 06:46:03;;;;;;;17.08;8.10;;;;;;;;;;5034831;28;20045;-62
2023/06/21 06:48:30;;;;;;;12.55;7.45;;;;;;;;;;5033983;28;20049;-62
2023/06/21 06:50:57;;;;;;;14.10;8.13;;;;;;;;;;5033679;28;20418;-63
2023/06/21 06:53:24;;;;;;;12.50;8.02;;;;;;;;;;5034158;28;20517;-62
2023/06/21 06:55:52;;;;;;;17.33;7.75;;;;;;;;;;5034157;28;20410;-62
2023/06/21 06:58:20;;;;;;;13.63;7.38;;;;;;;;;;5033819;28;20126;-62
2023/06/21 07:00:47;;;;;;;12.77;7.63;;;;;;;;;;5033591;28;20053;-62
2023/06/21 07:03:14;;;;;;;11.95;7.70;;;;;;;;;;5033804;28;20045;-62
2023/06/21 07:05:43;;;;;;;12.25;7.07;;;;;;;;;;5033460;28;20136;-62
2023/06/21 07:08:11;;;;;;;11.57;7.35;;;;;;;;;;5033101;28;20057;-62
2023/06/21 07:10:38;;;;;;;11.55;7.45;;;;;;;;;;5033357;28;20410;-62
2023/06/21 07:13:05;;;;;;;13.50;7.55;;;;;;;;;;5033469;28;20521;-62
2023/06/21 07:15:34;;;;;;;15.32;7.00;;;;;;;;;;5033432;28;20544;-62
2023/06/21 07:18:01;;;;;;;14.40;7.35;;;;;;;;;;5033549;28;20119;-62
2023/06/21 07:20:30;;;;;;;15.35;7.22;;;;;;;;;;5033410;28;20330;-62
2023/06/21 07:22:57;;;;;;;12.95;8.13;;;;;;;;;;5033172;28;20049;-62
2023/06/21 07:25:24;;;;;;;15.18;7.93;;;;;;;;;;5033348;28;20104;-62
2023/06/21 07:27:51;;;;;;;11.20;6.63;;;;;;;;;;5033386;28;20217;-62
2023/06/21 07:30:18;;;;;;;12.10;7.07;;;;;;;;;;5033566;28;20049;-64
2023/06/21 07:32:47;;;;;;;13.65;8.00;;;;;;;;;;5033169;28;20050;-62
2023/06/21 07:35:14;;;;;;;10.13;7.22;;;;;;;;;;5033556;28;20463;-62
2023/06/21 07:37:42;;;;;;;9.65;6.35;;;;;;;;;;5033915;28;20050;-62
2023/06/21 07:40:10;;;;;;;13.63;7.20;;;;;;;;;;5032895;28;20050;-62
2023/06/21 07:42:37;;;;;;;11.70;6.88;;;;;;;;;;5033350;28;20089;-62
2023/06/21 07:45:06;;;;;;;13.00;7.25;;;;;;;;;;5034770;28;20457;-62
2023/06/21 07:47:33;;;;;;;13.88;7.07;;;;;;;;;;5033799;28;20072;-64
2023/06/21 07:50:01;;;;;;;17.63;7.70;;;;;;;;;;5033357;28;20403;-62
2023/06/21 07:52:28;;;;;;;13.10;6.90;;;;;;;;;;5033026;28;20506;-64
2023/06/21 07:54:55;;;;;;;13.52;6.82;;;;;;;;;;5032705;28;20524;-62
2023/06/21 07:57:22;;;;;;;12.57;7.40;;;;;;;;;;5032182;28;20049;-62
2023/06/21 07:59:49;;;;;;;12.45;6.80;;;;;;;;;;5032269;28;20518;-62
2023/06/21 08:02:18;;;;;;;14.27;7.40;;;;;;;;;;5022019;28;20056;-63
2023/06/21 08:04:48;;;;;;;13.68;7.47;;;;;;;;;;5030454;28;20313;-63
2023/06/21 08:07:17;;;;;;;11.40;6.82;;;;;;;;;;5030926;28;20494;-62
2023/06/21 08:09:44;;;;;;;10.63;6.55;;;;;;;;;;5022951;28;20045;-63
2023/06/21 08:12:11;;;;;;;11.93;7.03;;;;;;;;;;5030614;28;20503;-63
2023/06/21 08:14:37;;;;;;;12.80;7.65;;;;;;;;;;5030791;28;20057;-64
2023/06/21 08:17:05;;;;;;;13.27;7.20;;;;;;;;;;5029567;28;20067;-62
2023/06/21 08:19:31;;;;;;;13.30;7.00;;;;;;;;;;5021425;28;20396;-61
2023/06/21 08:21:58;;;;;;;11.18;7.35;;;;;;;;;;5033120;28;20329;-62
2023/06/21 08:24:28;;;;;;;11.82;7.05;;;;;;;;;;5034067;28;20132;-62
2023/06/21 08:26:54;;;;;;;14.93;6.82;;;;;;;;;;5033934;28;20076;-62
2023/06/21 08:29:21;;;;;;;14.05;6.90;;;;;;;;;;5031181;28;20048;-61
2023/06/21 08:31:48;;;;;;;11.38;6.28;;;;;;;;;;5032501;28;20526;-62
2023/06/21 08:34:15;;;;;;;11.02;6.55;;;;;;;;;;5028660;28;20076;-62
2023/06/21 08:36:42;;;;;;;10.55;6.47;;;;;;;;;;5031229;28;20049;-61
2023/06/21 08:39:09;;;;;;;15.63;7.90;;;;;;;;;;5032026;28;20145;-62
2023/06/21 08:41:39;;;;;;;11.00;7.18;;;;;;;;;;5033756;28;20053;-62
2023/06/21 08:44:06;;;;;;;11.25;6.38;;;;;;;;;;5034082;28;20049;-62
2023/06/21 08:46:35;;;;;;;10.68;7.00;;;;;;;;;;5034625;28;20590;-63
2023/06/21 08:49:05;;;;;;;11.20;7.43;;;;;;;;;;5030361;28;20053;-62
2023/06/21 08:51:33;;;;;;;;;;;;;;;;;;5025565;28;20050;-62
2023/06/21 08:54:04;;;;;;;11.38;6.85;;;;;;;;;;5033658;28;19927;-63
2023/06/21 08:56:38;;;;;;;11.90;6.80;;;;;;;;;;5033988;28;20064;-63
2023/06/21 08:59:12;;;;;;;13.40;7.43;;;;;;;;;;5033547;28;20077;-63
2023/06/21 09:01:46;;;;;;;9.32;6.63;;;;;;;;;;5028180;28;20601;-63
2023/06/21 09:04:16;;;;;;;16.35;7.20;;;;;;;;;;5037175;28;20095;-70
2023/06/21 09:06:44;;;;;;;16.38;7.90;;;;;;;;;;5025267;28;20100;-66
2023/06/21 09:09:13;;;;;;;12.98;7.68;;;;;;;;;;5032939;28;20050;-63
2023/06/21 09:11:42;;;;;;;13.40;7.88;;;;;;;;;;5032039;28;20060;-62
2023/06/21 09:14:11;;;;;;;12.50;7.50;;;;;;;;;;5024971;28;20045;-69
2023/06/21 09:16:39;;;;;;;13.10;7.60;;;;;;;;;;5030901;28;20057;-67
2023/06/21 09:19:06;;;;;;;14.15;8.00;;;;;;;;;;5036430;28;20045;-62
2023/06/21 09:21:35;;;;;;;17.02;7.97;;;;;;;;;;5031582;28;20053;-61
2023/06/21 09:24:02;;;;;;;14.70;8.73;;;;;;;;;;5034883;28;20115;-64
2023/06/21 09:26:30;;;;;;;11.98;8.27;;;;;;;;;;5030016;28;20046;-60
2023/06/21 09:28:57;;;;;;;13.20;7.72;;;;;;;;;;5033528;28;20056;-62
2023/06/21 09:31:27;;;;;;;14.20;7.45;;;;;;;;;;5038183;28;20049;-64
2023/06/21 09:33:55;;;;;;;;;;;;;;;;;;5041141;28;20045;-63
2023/06/21 09:36:22;;;;;;;14.23;7.72;;;;;;;;;;5034019;28;19944;-60
2023/06/21 09:38:49;;;;;;;11.48;7.85;;;;;;;;;;5033319;28;20428;-61
2023/06/21 09:41:18;;;;;;;12.27;7.05;;;;;;;;;;5033594;28;20631;-61
2023/06/21 09:43:46;;;;;;;11.63;7.80;;;;;;;;;;5033328;28;20057;-64
2023/06/21 09:46:14;;;;;;;16.52;8.38;;;;;;;;;;5031018;28;20076;-64
2023/06/21 09:48:42;;;;;;;11.68;8.07;;;;;;;;;;5033634;28;20055;-64
2023/06/21 09:51:12;;;;;;;12.98;8.32;;;;;;;;;;5033418;28;20089;-63
2023/06/21 09:53:42;;;;;;;10.40;8.35;;;;;;;;;;5033508;28;20041;-63
2023/06/21 09:56:09;;;;;;;9.50;7.22;;;;;;;;;;5033313;28;20049;-63
2023/06/21 09:58:36;;;;;;;13.50;8.05;;;;;;;;;;5032772;28;20556;-61
2023/06/21 10:01:07;;;;;;;10.48;7.45;;;;;;;;;;5032863;28;20103;-61
2023/06/21 10:03:37;;;;;;;10.57;7.45;;;;;;;;;;5032888;28;20112;-63
2023/06/21 10:06:06;;;;;;;15.02;9.15;;;;;;;;;;5033241;28;20055;-62
2023/06/21 10:08:36;;;;;;;11.43;8.05;;;;;;;;;;5032237;28;20456;-59
2023/06/21 10:11:04;;;;;;;9.98;8.45;;;;;;;;;;5025337;28;20422;-59
2023/06/21 10:13:32;;;;;;;11.65;7.68;;;;;;;;;;5028770;28;20462;-60
2023/06/21 10:16:01;;;;;;;10.93;7.72;;;;;;;;;;5022814;28;20153;-61
2023/06/21 10:18:29;;;;;;;11.13;7.63;;;;;;;;;;5027063;28;20049;-60
2023/06/21 10:20:58;;;;;;;14.15;8.63;;;;;;;;;;5027001;28;20287;-62
2023/06/21 10:23:30;;;;;;;13.80;8.68;;;;;;;;;;5031039;28;20513;-60
2023/06/21 10:26:00;;;;;;;12.48;8.20;;;;;;;;;;5030845;28;20589;-65
2023/06/21 10:28:28;;;;;;;11.90;9.23;;;;;;;;;;5031423;28;20392;-67
2023/06/21 10:30:57;;;;;;;12.48;8.55;;;;;;;;;;5032109;28;20084;-67
2023/06/21 10:33:26;;;;;;;13.37;8.60;;;;;;;;;;5030178;28;20042;-67
2023/06/21 10:35:55;;;;;;;12.85;8.40;;;;;;;;;;5032156;28;20293;-62
2023/06/21 10:38:34;;;;;;;14.27;9.05;;;;;;;;;;5032848;28;20049;-65
2023/06/21 10:41:02;;;;;;;10.88;8.15;;;;;;;;;;5031769;28;20423;-64
2023/06/21 10:43:30;;;;;;;14.93;9.55;;;;;;;;;;5030254;28;20042;-62
2023/06/21 10:45:58;;;;;;;13.02;8.65;;;;;;;;;;5042903;28;20049;-62
2023/06/21 10:48:27;;;;;;;13.00;9.27;;;;;;;;;;5031955;28;20041;-62
2023/06/21 10:50:54;;;;;;;20.70;7.27;;;;;;;;;;5030445;28;20502;-60
2023/06/21 10:53:23;;;;;;;21.98;5.25;;;;;;;;;;5032156;28;20503;-63
2023/06/21 10:55:52;;;;;;;13.80;3.83;;;;;;;;;;5031817;28;20476;-65
2023/06/21 10:58:20;;;;;;;11.75;4.53;;;;;;;;;;5034374;28;20407;-64
2023/06/21 11:00:49;;;;;;;18.70;4.47;;;;;;;;;;5033214;28;20133;-64
2023/06/21 11:03:16;;;;;;;15.80;4.57;;;;;;;;;;5027450;28;20539;-62
2023/06/21 11:05:45;;;;;;;16.77;4.97;;;;;;;;;;5027253;28;20049;-63
2023/06/21 11:08:16;;;;;;;15.60;5.40;;;;;;;;;;5039048;28;20042;-63
2023/06/21 11:10:46;;;;;;;17.92;4.60;;;;;;;;;;5030850;28;20045;-63
2023/06/21 11:13:16;;;;;;;19.17;5.30;;;;;;;;;;5031117;28;20041;-64
2023/06/21 11:15:44;;;;;;;14.52;4.68;;;;;;;;;;5054327;22;20160;-62
2023/06/21 11:18:11;;;;;;;17.75;5.13;;;;;;;;;;5049919;28;20049;-62
2023/06/21 11:20:48;;;;;;;13.68;4.07;;;;;;;;;;5049582;28;20524;-63
2023/06/21 11:23:17;;;;;;;21.13;4.80;;;;;;;;;;5029508;28;20054;-62
2023/06/21 11:25:51;;;;;;;17.70;4.80;;;;;;;;;;5029635;28;20049;-63
2023/06/21 11:28:32;;;;;;;18.45;6.03;;;;;;;;;;5029787;28;20088;-64
2023/06/21 11:31:10;;;;;;;15.98;5.82;;;;;;;;;;5029484;28;20422;-63
2023/06/21 11:33:51;;;;;;;15.60;5.57;;;;;;;;;;5029523;28;20057;-61
2023/06/21 11:36:21;;;;;;;13.38;4.88;;;;;;;;;;5029902;28;20486;-64
2023/06/21 11:38:53;;;;;;;13.32;4.65;;;;;;;;;;5029604;28;20418;-62
2023/06/21 11:42:00;;;;;;;15.98;4.90;;;;;;;;;;5029395;28;20050;-63
2023/06/21 11:44:30;;;;;;;14.93;4.15;;;;;;;;;;5015939;28;20069;-63
2023/06/21 11:47:20;;;;;;;;;;;;;;;;;;5029992;28;20395;-63
2023/06/21 11:49:59;;;;;;;13.07;3.63;;;;;;;;;;5009185;28;20030;-62
2023/06/21 11:52:35;;;;;;;12.73;3.50;;;;;;;;;;5029414;28;20107;-62
2023/06/21 11:55:21;;;;;;;10.73;4.30;;;;;;;;;;5030560;28;20136;-62
2023/06/21 11:57:48;;;;;;;14.50;4.20;;;;;;;;;;5033510;28;20053;-63
2023/06/21 12:00:16;;;;;;;13.27;3.70;;;;;;;;;;5032954;28;20049;-63
2023/06/21 12:02:43;;;;;;;12.35;4.45;;;;;;;;;;5033598;28;20400;-63
2023/06/21 12:05:10;;;;;;;14.90;4.10;;;;;;;;;;5033186;28;20049;-63
2023/06/21 12:07:37;;;;;;;12.73;3.85;;;;;;;;;;5033534;28;20053;-63
2023/06/21 12:10:05;;;;;;;16.88;4.55;;;;;;;;;;5033048;28;20058;-62
2023/06/21 12:12:33;;;;;;;13.35;4.20;;;;;;;;;;5033191;28;20131;-63
2023/06/21 12:15:00;;;;;;;12.80;3.97;;;;;;;;;;5033418;28;20395;-63
2023/06/21 12:17:28;;;;;;;14.52;4.25;;;;;;;;;;5033448;28;20049;-63
2023/06/21 12:20:03;;;;;;;16.08;4.93;;;;;;;;;;5033065;28;20470;-64
2023/06/21 12:22:30;;;;;;;14.52;3.85;;;;;;;;;;5033339;28;20509;-64
2023/06/21 12:24:56;;;;;;;14.93;4.18;;;;;;;;;;5032851;28;20472;-64
2023/06/21 12:27:23;;;;;;;14.68;4.30;;;;;;;;;;5032778;28;20426;-64
2023/06/21 12:29:53;;;;;;;15.32;3.92;;;;;;;;;;5032786;28;20091;-64
2023/06/21 12:32:21;;;;;;;14.38;4.00;;;;;;;;;;5033095;28;20057;-64
2023/06/21 12:34:50;;;;;;;11.38;3.67;;;;;;;;;;5033084;28;20520;-64
2023/06/21 12:37:19;;;;;;;15.10;4.47;;;;;;;;;;5033055;28;20107;-62
2023/06/21 12:39:50;;;;;;;13.57;3.90;;;;;;;;;;5032460;28;20140;-64
2023/06/21 12:42:19;;;;;;;14.63;5.57;;;;;;;;;;5032348;28;20145;-63
2023/06/21 12:44:46;;;;;;;16.67;5.83;;;;;;;;;;5032715;28;20050;-63
2023/06/21 12:47:13;;;;;;;14.43;4.50;;;;;;;;;;5032466;28;20379;-62
2023/06/21 12:49:40;;;;;;;13.52;4.03;;;;;;;;;;5032427;28;20072;-62
2023/06/21 12:52:08;;;;;;;16.48;4.40;;;;;;;;;;5032508;28;20058;-62
2023/06/21 12:54:35;;;;;;;12.85;4.15;;;;;;;;;;5032330;28;20406;-62
2023/06/21 12:57:02;;;;;;;10.60;4.68;;;;;;;;;;5032120;28;20057;-62
2023/06/21 12:59:29;;;;;;;15.00;4.50;;;;;;;;;;5032620;28;20050;-62
2023/06/21 13:01:57;;;;;;;15.55;4.38;;;;;;;;;;5032256;28;20049;-63
2023/06/21 13:04:24;;;;;;;13.57;4.15;;;;;;;;;;5017064;28;20057;-62
2023/06/21 13:06:51;;;;;;;11.75;3.75;;;;;;;;;;5011980;28;20049;-63
2023/06/21 13:09:19;;;;;;;10.73;4.00;;;;;;;;;;5012080;28;20471;-63
2023/06/21 13:11:46;;;;;;;15.25;4.70;;;;;;;;;;5012724;28;20085;-63
2023/06/21 13:14:13;;;;;;;11.93;4.30;;;;;;;;;;5012068;28;20100;-63
2023/06/21 13:16:40;;;;;;;13.02;4.47;;;;;;;;;;5012108;28;20064;-63
2023/06/21 13:19:07;;;;;;;10.98;4.53;;;;;;;;;;5011824;28;20056;-63
2023/06/21 13:21:34;;;;;;;12.10;3.53;;;;;;;;;;5012232;28;20144;-64
2023/06/21 13:24:02;;;;;;;13.52;3.80;;;;;;;;;;5012119;28;20042;-62
2023/06/21 13:26:31;;;;;;;12.30;3.63;;;;;;;;;;5012305;28;20085;-65
2023/06/21 13:28:57;;;;;;;12.98;4.13;;;;;;;;;;5012125;28;20049;-63
2023/06/21 13:31:25;;;;;;;10.90;3.60;;;;;;;;;;5011703;28;20056;-63
2023/06/21 13:33:52;;;;;;;16.30;4.43;;;;;;;;;;5011972;28;20053;-63
2023/06/21 13:36:19;;;;;;;13.63;3.88;;;;;;;;;;5011843;28;20049;-63
2023/06/21 13:38:46;;;;;;;12.98;3.92;;;;;;;;;;5011943;28;20479;-63
2023/06/21 13:41:13;;;;;;;10.30;3.30;;;;;;;;;;5011818;28;20053;-63
2023/06/21 13:43:41;;;;;;;9.43;4.43;;;;;;;;;;5011860;28;20064;-62
2023/06/21 13:46:08;;;;;;;12.10;3.30;;;;;;;;;;5011713;28;20057;-63
2023/06/21 13:48:34;;;;;;;14.13;3.63;;;;;;;;;;5011991;28;20097;-62
2023/06/21 13:51:01;;;;;;;12.20;3.50;;;;;;;;;;5011266;28;20057;-63
2023/06/21 13:53:28;;;;;;;13.43;4.22;;;;;;;;;;5011565;28;20049;-63
2023/06/21 13:55:56;;;;;;;11.43;3.63;;;;;;;;;;5011427;28;20054;-63
2023/06/21 13:58:25;;;;;;;10.38;3.55;;;;;;;;;;5011612;28;20081;-63
2023/06/21 14:00:54;;;;;;;12.60;3.40;;;;;;;;;;5011301;28;20507;-62
2023/06/21 14:03:21;;;;;;;13.20;4.00;;;;;;;;;;5018485;28;20486;-63
2023/06/21 14:05:48;;;;;;;11.57;3.83;;;;;;;;;;5031242;28;20053;-63
2023/06/21 14:08:14;;;;;;;13.10;4.13;;;;;;;;;;5031142;28;20498;-62
2023/06/21 14:10:41;;;;;;;15.55;3.67;;;;;;;;;;5031230;28;20503;-63
2023/06/21 14:13:08;;;;;;;9.32;4.00;;;;;;;;;;5031054;28;20317;-63
2023/06/21 14:15:35;;;;;;;8.63;3.75;;;;;;;;;;5031170;28;20565;-63
2023/06/21 14:18:03;;;;;;;9.07;4.15;;;;;;;;;;5030123;28;20469;-62
2023/06/21 14:20:30;;;;;;;11.55;3.97;;;;;;;;;;5030998;28;20459;-63
2023/06/21 14:22:57;;;;;;;13.35;3.92;;;;;;;;;;5031094;28;20053;-62
2023/06/21 14:25:24;;;;;;;12.15;3.58;;;;;;;;;;5031178;28;20050;-63
2023/06/21 14:27:51;;;;;;;9.68;3.15;;;;;;;;;;5030744;28;20510;-63
2023/06/21 14:30:18;;;;;;;11.60;3.80;;;;;;;;;;5030777;28;20108;-63
2023/06/21 14:32:46;;;;;;;9.98;3.50;;;;;;;;;;5030867;28;20132;-63
2023/06/21 14:35:15;;;;;;;10.32;3.22;;;;;;;;;;5031135;28;20049;-63
2023/06/21 14:37:43;;;;;;;8.80;3.20;;;;;;;;;;5030825;28;20103;-63